createdAt,value
2023-02-03T00:00:23.004Z,10.80
2023-02-03T00:02:51.185Z,11.40
2023-02-03T00:05:19.246Z,10.50
2023-02-03T00:07:48.714Z,9.60
2023-02-03T00:10:21.462Z,9.10
2023-02-03T00:12:50.613Z,9.00
2023-02-03T00:15:20.407Z,9.20
2023-02-03T00:20:16.865Z,8.70
2023-02-03T00:22:45.135Z,9.70
2023-02-03T00:25:13.059Z,8.90
2023-02-03T00:27:42.402Z,9.40
2023-02-03T00:30:12.127Z,10.60
2023-02-03T00:32:40.645Z,10.10
2023-02-03T00:35:08.866Z,10.30
2023-02-03T00:37:37.852Z,11.50
2023-02-03T00:40:06.564Z,10.80
2023-02-03T00:42:36.046Z,11.40
2023-02-03T00:47:32.564Z,13.80
2023-02-03T00:50:01.196Z,14.40
2023-02-03T00:52:29.664Z,13.80
2023-02-03T00:54:57.708Z,14.30
2023-02-03T00:57:25.738Z,12.70
2023-02-03T00:59:54.984Z,13.30
2023-02-03T01:02:23.195Z,12.30
2023-02-03T01:04:53.403Z,11.40
2023-02-03T01:07:21.820Z,10.70
2023-02-03T01:09:50.428Z,10.20
2023-02-03T01:12:18.371Z,10.20
2023-02-03T01:14:46.640Z,9.10
2023-02-03T01:17:14.648Z,8.70
2023-02-03T01:19:42.801Z,8.40
2023-02-03T01:22:11.130Z,8.20
2023-02-03T01:24:39.166Z,8.40
2023-02-03T01:27:07.382Z,8.30
2023-02-03T01:29:35.555Z,8.70
2023-02-03T01:32:03.905Z,7.70
2023-02-03T01:34:32.056Z,8.20
2023-02-03T01:37:00.681Z,8.50
2023-02-03T01:41:57.837Z,8.50
2023-02-03T01:44:47.577Z,8.40
2023-02-03T01:47:49.089Z,9.80
2023-02-03T01:50:43.673Z,9.50
2023-02-03T01:53:12.554Z,9.50
2023-02-03T01:55:48.418Z,10.00
2023-02-03T01:58:25.776Z,9.70
2023-02-03T02:03:36.774Z,9.90
2023-02-03T02:06:07.297Z,9.80
2023-02-03T02:08:37.838Z,8.50
2023-02-03T02:11:09.413Z,9.10
2023-02-03T02:13:37.624Z,9.20
2023-02-03T02:16:25.318Z,9.70
2023-02-03T02:19:08.853Z,9.50
2023-02-03T02:21:56.010Z,9.50
2023-02-03T02:24:55.217Z,9.80
2023-02-03T02:27:46.315Z,9.90
2023-02-03T02:30:51.941Z,9.40
2023-02-03T02:33:41.964Z,9.50
2023-02-03T02:36:22.784Z,10.20
2023-02-03T02:39:10.941Z,9.10
2023-02-03T02:41:49.111Z,9.20
2023-02-03T02:44:22.649Z,8.90
2023-02-03T02:46:56.455Z,10.10
2023-02-03T02:49:37.435Z,9.10
2023-02-03T02:52:05.885Z,8.70
2023-02-03T02:54:39.793Z,9.90
2023-02-03T02:57:10.158Z,9.90
2023-02-03T02:59:38.398Z,10.10
2023-02-03T03:02:07.046Z,11.10
2023-02-03T03:04:35.305Z,10.20
2023-02-03T03:07:16.242Z,11.00
2023-02-03T03:09:49.137Z,10.20
2023-02-03T03:12:20.962Z,10.30
2023-02-03T03:14:54.210Z,10.80
2023-02-03T03:17:26.235Z,11.00
2023-02-03T03:19:56.674Z,10.70
2023-02-03T03:22:29.064Z,11.80
2023-02-03T03:25:10.162Z,13.10
2023-02-03T03:27:41.120Z,24.00
2023-02-03T03:30:29.558Z,46.50
2023-02-03T03:32:59.861Z,19.40
2023-02-03T03:35:31.692Z,18.20
2023-02-03T03:38:07.603Z,14.10
2023-02-03T03:40:41.628Z,12.00
2023-02-03T03:43:18.224Z,10.80
2023-02-03T03:46:00.817Z,10.20
2023-02-03T03:48:32.624Z,8.50
2023-02-03T03:51:04.125Z,8.90
2023-02-03T03:53:32.937Z,8.80
2023-02-03T03:56:01.264Z,8.40
2023-02-03T03:58:31.061Z,8.10
2023-02-03T04:01:03.772Z,9.00
2023-02-03T04:03:48.537Z,9.00
2023-02-03T04:06:16.640Z,8.80
2023-02-03T04:08:44.880Z,8.20
2023-02-03T04:11:32.861Z,8.20
2023-02-03T04:14:04.452Z,7.80
2023-02-03T04:16:32.602Z,8.50
2023-02-03T04:19:00.691Z,8.90
2023-02-03T04:21:30.606Z,9.00
2023-02-03T04:23:58.685Z,8.90
2023-02-03T04:26:26.685Z,9.30
2023-02-03T04:28:54.950Z,8.40
2023-02-03T04:31:23.233Z,8.50
2023-02-03T04:33:51.374Z,8.80
2023-02-03T04:36:19.524Z,9.70
2023-02-03T04:38:51.155Z,10.30
2023-02-03T04:41:19.164Z,11.00
2023-02-03T04:43:47.789Z,9.50
2023-02-03T04:46:15.942Z,10.60
2023-02-03T04:48:44.065Z,9.60
2023-02-03T04:51:12.092Z,10.20
2023-02-03T04:53:40.313Z,11.60
2023-02-03T04:56:08.386Z,10.30
2023-02-03T04:58:37.082Z,10.90
2023-02-03T05:01:09.077Z,10.60
2023-02-03T05:03:37.378Z,10.30
2023-02-03T05:06:06.158Z,13.10
2023-02-03T05:11:02.645Z,12.40
2023-02-03T05:13:33.657Z,13.80
2023-02-03T05:16:01.972Z,14.70
2023-02-03T05:18:30.620Z,14.90
2023-02-03T05:20:58.867Z,14.30
2023-02-03T05:23:27.199Z,13.70
2023-02-03T05:25:55.567Z,14.90
2023-02-03T05:28:23.748Z,14.20
2023-02-03T05:30:51.916Z,15.60
2023-02-03T05:33:20.125Z,15.60
2023-02-03T05:35:48.963Z,21.40
2023-02-03T05:38:17.295Z,22.60
2023-02-03T05:41:06.973Z,19.70
2023-02-03T05:43:35.318Z,17.00
2023-02-03T05:46:04.514Z,18.00
2023-02-03T05:48:32.951Z,16.50
2023-02-03T05:51:01.072Z,15.30
2023-02-03T05:53:31.189Z,16.70
2023-02-03T05:55:59.650Z,16.50
2023-02-03T05:58:27.591Z,16.70
2023-02-03T06:00:55.678Z,19.10
2023-02-03T06:03:24.029Z,18.20
2023-02-03T06:05:52.235Z,18.30
2023-02-03T08:24:06.860Z,18.80
2023-02-03T08:26:36.744Z,18.30
2023-02-03T08:29:05.284Z,18.10
2023-02-03T08:31:33.721Z,17.80
2023-02-03T08:34:02.052Z,17.80
2023-02-03T08:36:30.263Z,18.00
2023-02-03T08:38:58.485Z,16.70
2023-02-03T08:41:26.608Z,16.60
2023-02-03T08:43:55.984Z,16.10
2023-02-03T08:46:24.032Z,17.70
2023-02-03T08:48:56.474Z,17.60
2023-02-03T08:51:24.787Z,17.70
2023-02-03T08:53:52.939Z,18.60
2023-02-03T08:56:21.973Z,17.00
2023-02-03T08:58:50.045Z,17.80
2023-02-03T09:01:18.833Z,16.90
2023-02-03T09:06:16.744Z,16.20
2023-02-03T09:08:46.197Z,16.70
2023-02-03T09:11:15.956Z,14.70
2023-02-03T09:13:48.780Z,15.30
2023-02-03T09:16:18.449Z,14.90
2023-02-03T09:18:46.800Z,13.60
2023-02-03T09:21:31.570Z,14.70
2023-02-03T09:24:02.644Z,14.40
2023-02-03T09:26:31.146Z,13.90
2023-02-03T09:28:59.668Z,13.60
2023-02-03T09:31:27.799Z,14.50
2023-02-03T09:33:55.983Z,15.10
2023-02-03T09:36:24.092Z,14.10
2023-02-03T09:38:52.264Z,15.30
2023-02-03T09:41:44.297Z,14.20
2023-02-03T09:44:18.705Z,12.00
2023-02-03T09:46:51.164Z,12.80
2023-02-03T09:49:24.692Z,13.50
2023-02-03T09:52:04.185Z,13.10
2023-02-03T09:54:44.540Z,11.50
2023-02-03T09:57:25.549Z,12.20
2023-02-03T09:59:55.887Z,10.50
2023-02-03T10:02:49.732Z,10.80
2023-02-03T10:05:32.807Z,11.00
2023-02-03T10:08:28.678Z,10.40
2023-02-03T10:11:12.059Z,10.20
2023-02-03T10:13:48.812Z,11.40
2023-02-03T10:16:30.230Z,11.20
2023-02-03T10:18:58.644Z,10.80
2023-02-03T10:21:45.086Z,11.80
2023-02-03T10:24:19.087Z,10.90
2023-02-03T10:26:47.284Z,11.80
2023-02-03T10:29:29.808Z,11.50
2023-02-03T10:31:58.856Z,11.50
2023-02-03T10:34:27.238Z,10.70
2023-02-03T10:36:57.396Z,11.10
2023-02-03T10:39:37.839Z,11.80
2023-02-03T10:42:06.624Z,11.90
2023-02-03T10:44:43.473Z,11.10
2023-02-03T10:47:48.016Z,11.10
2023-02-03T10:50:18.512Z,12.20
2023-02-03T10:52:47.561Z,12.50
2023-02-03T10:55:22.986Z,11.50
2023-02-03T10:57:52.999Z,12.30
2023-02-03T11:00:22.748Z,11.70
2023-02-03T11:03:23.550Z,12.60
2023-02-03T11:06:08.403Z,11.90
2023-02-03T11:08:38.353Z,11.50
2023-02-03T11:11:08.969Z,12.60
2023-02-03T11:13:37.194Z,12.10
2023-02-03T11:16:17.357Z,11.90
2023-02-03T11:19:02.858Z,13.00
2023-02-03T11:21:37.801Z,11.90
2023-02-03T11:24:25.068Z,12.30
2023-02-03T11:27:04.743Z,11.60
2023-02-03T11:29:35.909Z,11.80
2023-02-03T11:32:15.832Z,11.40
2023-02-03T11:34:57.696Z,11.40
2023-02-03T11:37:33.666Z,12.40
2023-02-03T11:40:07.933Z,12.90
2023-02-03T11:42:37.862Z,10.80
2023-02-03T11:45:24.117Z,10.90
2023-02-03T11:47:59.934Z,11.30
2023-02-03T11:50:47.813Z,12.10
2023-02-03T11:53:37.799Z,10.70
2023-02-03T11:56:28.263Z,11.00
2023-02-03T11:59:21.064Z,11.60
2023-02-03T12:02:14.442Z,10.60
2023-02-03T12:05:13.362Z,10.50
2023-02-03T12:07:50.821Z,10.30
2023-02-03T12:10:32.912Z,10.90
2023-02-03T12:13:08.561Z,10.00
2023-02-03T12:15:50.285Z,10.80
2023-02-03T12:18:25.773Z,11.30
2023-02-03T12:21:18.891Z,11.20
2023-02-03T12:23:51.850Z,11.40
2023-02-03T12:26:25.793Z,11.10
2023-02-03T12:29:12.820Z,11.40
2023-02-03T12:31:49.956Z,9.70
2023-02-03T12:34:24.654Z,9.30
2023-02-03T12:36:58.181Z,9.40
2023-02-03T12:39:48.563Z,10.60
2023-02-03T12:42:20.931Z,11.80
2023-02-03T12:44:50.753Z,12.10
2023-02-03T12:47:24.560Z,11.90
2023-02-03T12:50:23.461Z,9.90
2023-02-03T12:53:00.879Z,10.00
2023-02-03T12:55:34.971Z,9.00
2023-02-03T12:58:11.911Z,8.90
2023-02-03T13:00:49.056Z,7.70
2023-02-03T13:03:32.835Z,6.10
2023-02-03T13:06:28.879Z,5.90
2023-02-03T13:09:29.833Z,6.10
2023-02-03T13:12:09.265Z,4.70
2023-02-03T13:14:46.553Z,5.00
2023-02-03T13:17:18.726Z,4.90
2023-02-03T13:19:51.195Z,5.10
2023-02-03T13:22:19.991Z,4.90
2023-02-03T13:24:51.315Z,5.00
2023-02-03T13:27:32.108Z,5.90
2023-02-03T13:30:10.383Z,5.40
2023-02-03T13:32:39.706Z,5.10
2023-02-03T13:35:34.188Z,5.00
2023-02-03T13:38:18.248Z,4.80
2023-02-03T13:41:02.192Z,4.90
2023-02-03T13:43:39.704Z,5.90
2023-02-03T13:46:30.416Z,4.70
2023-02-03T13:49:00.287Z,4.70
2023-02-03T13:51:34.932Z,4.60
2023-02-03T13:54:08.637Z,4.50
2023-02-03T13:56:39.569Z,4.40
2023-02-03T13:59:13.821Z,4.00
2023-02-03T14:01:42.877Z,4.40
2023-02-03T14:07:01.880Z,3.60
2023-02-03T14:09:34.476Z,3.70
2023-02-03T14:12:15.096Z,4.60
2023-02-03T14:14:45.341Z,3.60
2023-02-03T14:17:35.316Z,3.70
2023-02-03T14:20:04.527Z,3.30
2023-02-03T14:22:32.726Z,3.70
2023-02-03T14:25:05.590Z,3.00
2023-02-03T14:27:33.942Z,3.10
2023-02-03T14:30:22.336Z,2.80
2023-02-03T14:32:54.815Z,3.40
2023-02-03T14:35:36.714Z,3.00
2023-02-03T14:38:11.694Z,2.70
2023-02-03T14:40:59.746Z,2.60
2023-02-03T14:43:38.032Z,2.70
2023-02-03T14:46:15.411Z,2.80
2023-02-03T14:48:48.749Z,3.10
2023-02-03T14:51:47.720Z,3.10
2023-02-03T14:54:18.663Z,3.30
2023-02-03T14:57:16.278Z,4.10
2023-02-03T14:59:48.805Z,3.90
2023-02-03T15:02:19.712Z,5.20
2023-02-03T15:04:50.423Z,5.00
2023-02-03T15:07:38.881Z,5.50
2023-02-03T15:10:14.838Z,5.50
2023-02-03T15:13:01.084Z,6.10
2023-02-03T15:15:31.439Z,6.20
2023-02-03T15:18:00.943Z,6.40
2023-02-03T15:20:42.817Z,6.50
2023-02-03T15:23:21.583Z,6.60
2023-02-03T15:25:54.831Z,6.90
2023-02-03T15:28:24.111Z,6.70
2023-02-03T15:33:30.796Z,7.00
2023-02-03T15:36:07.823Z,7.00
2023-02-03T15:38:40.148Z,6.50
2023-02-03T15:41:11.266Z,8.20
2023-02-03T15:43:40.907Z,8.50
2023-02-03T15:46:28.893Z,8.80
2023-02-03T15:49:18.212Z,8.20
2023-02-03T15:51:49.844Z,9.30
2023-02-03T15:54:24.631Z,8.60
2023-02-03T15:57:05.687Z,9.40
2023-02-03T15:59:42.576Z,9.40
2023-02-03T16:02:33.699Z,9.70
2023-02-03T16:05:29.872Z,9.60
2023-02-03T16:07:58.450Z,9.60
2023-02-03T16:10:30.524Z,8.90
2023-02-03T16:13:24.527Z,9.30
2023-02-03T16:16:08.245Z,9.90
2023-02-03T16:18:36.861Z,10.00
2023-02-03T16:21:05.532Z,10.30
2023-02-03T16:23:34.116Z,9.30
2023-02-03T16:26:04.246Z,9.80
2023-02-03T16:28:51.658Z,10.80
2023-02-03T16:31:40.015Z,10.50
2023-02-03T16:34:37.294Z,11.90
2023-02-03T16:37:31.853Z,12.50
2023-02-03T16:40:18.987Z,11.20
2023-02-03T16:43:05.645Z,11.60
2023-02-03T16:45:54.907Z,12.70
2023-02-03T16:48:41.582Z,12.90
2023-02-03T16:51:16.120Z,11.10
2023-02-03T16:53:45.824Z,11.90
2023-02-03T16:56:13.895Z,13.10
2023-02-03T16:58:41.990Z,11.40
2023-02-03T17:01:11.912Z,8.90
2023-02-03T17:03:40.091Z,10.90
2023-02-03T17:06:11.437Z,10.60
2023-02-03T17:08:41.095Z,11.70
2023-02-03T17:11:17.208Z,10.10
2023-02-03T17:13:45.800Z,11.10
2023-02-03T17:16:19.089Z,10.20
2023-02-03T17:18:47.693Z,10.60
2023-02-03T17:21:21.503Z,11.70
2023-02-03T17:23:49.779Z,10.80
2023-02-03T17:26:18.277Z,10.40
2023-02-03T17:28:46.442Z,10.20
2023-02-03T17:31:16.232Z,10.30
2023-02-03T17:33:44.787Z,10.40
2023-02-03T17:36:15.043Z,10.80
2023-02-03T17:55:21.107Z,10.60
2023-02-03T17:57:49.801Z,11.20
2023-02-03T18:00:18.678Z,10.70
2023-02-03T18:02:50.936Z,10.40
2023-02-03T18:05:19.315Z,10.90
2023-02-03T18:10:17.022Z,11.70
2023-02-03T18:12:46.401Z,11.70
2023-02-03T18:15:14.423Z,11.00
2023-02-03T18:17:43.259Z,11.10
2023-02-03T18:20:12.218Z,12.30
2023-02-03T18:22:40.523Z,12.10
2023-02-03T18:25:09.801Z,11.90
2023-02-03T18:27:39.889Z,11.30
2023-02-03T18:30:11.321Z,12.10
2023-02-03T18:32:39.399Z,13.20
2023-02-03T18:35:13.153Z,12.30
2023-02-03T18:37:42.313Z,12.90
2023-02-03T18:40:11.974Z,12.70
2023-02-03T18:42:41.276Z,12.20
2023-02-03T18:45:11.007Z,12.80
2023-02-03T18:47:39.364Z,12.40
2023-02-03T18:50:08.420Z,12.00
2023-02-03T18:52:38.080Z,12.30
2023-02-03T18:55:06.788Z,11.90
2023-02-03T18:57:36.045Z,11.40
2023-02-03T19:00:05.705Z,11.00
2023-02-03T19:02:36.049Z,10.40
2023-02-03T19:05:05.530Z,10.80
2023-02-03T19:07:34.114Z,10.80
2023-02-03T19:10:02.245Z,11.50
2023-02-03T19:12:31.101Z,12.10
2023-02-03T19:14:59.357Z,12.40
2023-02-03T19:17:27.893Z,11.60
2023-02-03T19:19:57.002Z,11.10
2023-02-03T19:22:25.387Z,9.90
2023-02-03T19:24:53.656Z,10.70
2023-02-03T19:27:23.062Z,9.40
2023-02-03T19:32:19.388Z,9.10
2023-02-03T19:34:47.626Z,9.60
2023-02-03T19:37:16.175Z,10.00
2023-02-03T19:39:47.919Z,9.60
2023-02-03T19:42:16.921Z,9.60
2023-02-03T19:47:13.555Z,8.90
2023-02-03T19:49:41.609Z,9.20
2023-02-03T19:52:10.736Z,9.40
2023-02-03T19:54:39.203Z,9.20
2023-02-03T19:57:08.145Z,10.00
2023-02-03T19:59:36.296Z,10.50
2023-02-03T20:02:13.770Z,11.30
2023-02-03T20:04:44.291Z,12.10
2023-02-03T20:07:15.118Z,10.20
2023-02-03T20:09:43.425Z,10.00
2023-02-03T20:12:11.757Z,10.30
2023-02-03T20:14:40.894Z,10.00
2023-02-03T20:17:09.994Z,10.30
2023-02-03T20:19:38.572Z,10.70
2023-02-03T20:22:06.959Z,11.30
2023-02-03T20:24:35.321Z,10.40
2023-02-03T20:27:03.600Z,11.00
2023-02-03T20:29:33.618Z,9.30
2023-02-03T20:34:33.578Z,10.50
2023-02-03T20:37:02.033Z,12.20
2023-02-03T20:39:30.616Z,10.90
2023-02-03T20:41:59.293Z,10.90
2023-02-03T20:44:27.988Z,10.10
2023-02-03T20:46:56.638Z,9.60
2023-02-03T20:49:26.276Z,10.20
2023-02-03T20:51:54.451Z,11.00
2023-02-03T20:54:22.680Z,10.50
2023-02-03T20:56:51.108Z,10.90
2023-02-03T20:59:19.596Z,9.90
2023-02-03T21:01:48.042Z,12.30
2023-02-03T21:04:36.165Z,11.20
2023-02-03T21:07:14.070Z,11.80
2023-02-03T21:09:43.070Z,11.90
2023-02-03T21:12:14.260Z,11.00
2023-02-03T21:14:43.658Z,11.60
2023-02-03T21:19:47.184Z,10.70
2023-02-03T21:22:22.179Z,10.30
2023-02-03T21:24:55.025Z,11.00
2023-02-03T21:27:25.114Z,12.20
2023-02-03T21:29:56.679Z,14.60
2023-02-03T21:32:26.973Z,13.60
2023-02-03T21:34:55.351Z,15.50
2023-02-03T21:37:23.369Z,14.60
2023-02-03T21:39:51.621Z,14.70
2023-02-03T21:42:42.313Z,15.50
2023-02-03T21:45:16.951Z,16.40
2023-02-03T21:47:46.719Z,14.10
2023-02-03T21:50:34.504Z,16.20
2023-02-03T21:53:09.108Z,14.20
2023-02-03T21:55:42.731Z,12.30
2023-02-03T21:58:32.244Z,11.10
2023-02-03T22:01:01.139Z,10.30
2023-02-03T22:03:43.480Z,9.10
2023-02-03T22:06:11.505Z,8.70
2023-02-03T22:08:50.481Z,8.90
2023-02-03T22:11:18.974Z,8.10
2023-02-03T22:13:47.770Z,7.90
2023-02-03T22:16:17.331Z,8.80
2023-02-03T22:18:46.261Z,8.60
2023-02-03T22:21:14.543Z,8.00
2023-02-03T22:23:42.810Z,9.00
2023-02-03T22:26:11.716Z,8.60
2023-02-03T22:28:39.887Z,9.20
2023-02-03T22:31:08.694Z,9.50
2023-02-03T22:33:37.259Z,8.80
2023-02-03T22:36:10.209Z,8.60
2023-02-03T22:38:39.033Z,10.10
2023-02-03T22:41:09.522Z,10.50
2023-02-03T22:43:37.609Z,10.30
2023-02-03T22:46:06.954Z,10.00
2023-02-03T22:48:35.028Z,10.10
2023-02-03T22:51:03.684Z,10.60
2023-02-03T22:53:32.870Z,10.60
2023-02-03T22:56:01.139Z,9.80
2023-02-03T22:58:29.618Z,9.90
2023-02-03T23:00:57.891Z,9.30
2023-02-03T23:03:26.136Z,9.30
2023-02-03T23:05:56.468Z,8.90
2023-02-03T23:08:25.030Z,9.10
2023-02-03T23:10:53.263Z,9.20
2023-02-03T23:13:22.233Z,9.70
2023-02-03T23:15:50.924Z,10.10
2023-02-03T23:18:19.171Z,9.90
2023-02-03T23:20:47.788Z,8.80
2023-02-03T23:23:16.291Z,10.50
2023-02-03T23:25:44.381Z,11.20
2023-02-03T23:28:12.583Z,10.50
2023-02-03T23:33:09.955Z,10.80
2023-02-03T23:35:49.382Z,11.60
2023-02-03T23:40:45.629Z,8.70
2023-02-03T23:43:14.635Z,9.40
2023-02-03T23:45:42.741Z,9.10
2023-02-03T23:48:11.095Z,7.90
2023-02-03T23:50:40.196Z,9.50
2023-02-03T23:53:09.513Z,9.30
2023-02-03T23:55:37.713Z,9.40
2023-02-03T23:58:05.854Z,9.70
